Time;durP1;ratioP1;P1;durP2;ratioP2;P2;SDS_P1;SDS_P2;PMS_P1;PMS_P2;Temp;Humidity;BMP_temperature;BMP_pressure;BME280_temperature;BME280_humidity;BME280_pressure;Samples;Min_cycle;Max_cycle;Signal;HPM_P1;HPM_P2
2021/06/22 00:01:00;;;;;;;3.53;0.73;;;16.00;99.90;;;;;;5051002;28;20231;-73
2021/06/22 00:03:27;;;;;;;3.50;1.05;;;16.00;99.90;;;;;;5051026;28;20297;-74
2021/06/22 00:05:54;;;;;;;1.08;0.90;;;15.90;99.90;;;;;;5050305;28;20680;-74
2021/06/22 00:08:21;;;;;;;1.10;1.00;;;15.90;99.90;;;;;;5051013;28;20736;-73
2021/06/22 00:10:48;;;;;;;1.77;1.17;;;16.00;99.90;;;;;;5050538;28;20586;-75
2021/06/22 00:13:18;;;;;;;4.03;1.25;;;16.10;99.90;;;;;;5051240;28;20276;-75
2021/06/22 00:15:45;;;;;;;3.65;0.80;;;16.00;99.90;;;;;;5050633;28;20693;-75
2021/06/22 00:18:12;;;;;;;2.83;1.40;;;16.00;99.90;;;;;;5050744;28;20207;-73
2021/06/22 00:20:39;;;;;;;3.28;1.08;;;16.00;99.90;;;;;;5050488;28;20281;-72
2021/06/22 00:23:06;;;;;;;1.55;0.77;;;16.00;99.90;;;;;;5050603;28;20203;-72
2021/06/22 00:25:33;;;;;;;3.13;0.95;;;16.10;99.90;;;;;;5051454;28;20264;-76
2021/06/22 00:28:00;;;;;;;0.85;0.60;;;16.00;99.90;;;;;;5051140;28;20214;-76
2021/06/22 00:30:28;;;;;;;1.20;0.75;;;16.10;99.90;;;;;;5050919;28;20206;-73
2021/06/22 00:32:55;;;;;;;1.30;0.90;;;16.10;99.90;;;;;;5049991;28;20689;-72
2021/06/22 00:35:22;;;;;;;4.13;0.50;;;16.10;99.90;;;;;;5051018;28;20276;-73
2021/06/22 00:37:50;;;;;;;3.53;1.20;;;16.20;99.90;;;;;;5050575;28;20207;-76
2021/06/22 00:40:17;;;;;;;1.30;0.77;;;16.00;99.90;;;;;;5050369;28;20645;-73
2021/06/22 00:42:46;;;;;;;1.83;0.95;;;15.90;99.90;;;;;;5050558;28;20272;-73
2021/06/22 00:45:15;;;;;;;1.25;0.88;;;16.00;99.90;;;;;;5048518;28;20264;-75
2021/06/22 00:47:44;;;;;;;3.88;1.17;;;16.00;99.90;;;;;;5049937;28;20210;-75
2021/06/22 00:50:11;;;;;;;6.35;1.58;;;16.10;99.90;;;;;;5050187;28;20633;-77
2021/06/22 00:52:39;;;;;;;1.50;0.73;;;16.10;99.90;;;;;;5050370;28;20207;-76
2021/06/22 00:55:12;;;;;;;1.45;0.75;;;16.10;99.90;;;;;;5050556;28;20257;-74
2021/06/22 00:57:39;;;;;;;2.00;1.00;;;16.20;99.90;;;;;;5050140;28;20290;-75
2021/06/22 01:00:09;;;;;;;1.85;1.25;;;16.10;99.90;;;;;;5050100;28;20597;-75
2021/06/22 01:02:36;;;;;;;0.90;0.77;;;16.00;99.90;;;;;;5049747;28;20261;-76
2021/06/22 01:05:05;;;;;;;1.33;1.23;;;15.90;99.90;;;;;;5050364;28;20256;-76
2021/06/22 01:07:32;;;;;;;3.60;1.50;;;15.90;99.90;;;;;;5051053;28;20206;-73
2021/06/22 01:09:59;;;;;;;1.55;0.70;;;15.80;99.90;;;;;;5049709;28;20215;-74
2021/06/22 01:12:26;;;;;;;2.10;1.23;;;15.90;99.90;;;;;;5050431;28;20273;-75
2021/06/22 01:14:53;;;;;;;1.95;0.93;;;15.90;99.90;;;;;;5049618;28;20203;-75
2021/06/22 01:17:20;;;;;;;1.58;0.88;;;15.90;99.90;;;;;;5050109;28;20215;-74
2021/06/22 01:19:47;;;;;;;5.95;1.55;;;15.80;99.90;;;;;;5051123;28;20234;-75
2021/06/22 01:22:16;;;;;;;3.65;1.05;;;15.80;99.90;;;;;;5054621;28;20203;-73
2021/06/22 01:24:43;;;;;;;1.13;0.82;;;15.80;99.90;;;;;;5053735;28;20261;-73
2021/06/22 01:27:10;;;;;;;3.50;1.38;;;15.70;99.90;;;;;;5054059;28;20740;-77
2021/06/22 01:29:37;;;;;;;2.05;0.70;;;15.70;99.90;;;;;;5053928;28;20287;-73
2021/06/22 01:32:07;;;;;;;0.90;0.90;;;15.60;99.90;;;;;;5054539;28;20207;-73
2021/06/22 01:34:34;;;;;;;3.28;1.00;;;15.60;99.90;;;;;;5054348;28;20221;-73
2021/06/22 01:37:02;;;;;;;2.42;1.00;;;15.70;99.90;;;;;;5054368;28;20203;-73
2021/06/22 01:39:30;;;;;;;3.10;0.90;;;15.80;99.90;;;;;;5054094;28;20211;-73
2021/06/22 01:41:57;;;;;;;1.65;1.17;;;15.70;99.90;;;;;;5053534;28;20997;-73
2021/06/22 01:44:28;;;;;;;1.95;0.65;;;15.80;99.90;;;;;;5053806;28;20207;-73
2021/06/22 01:46:55;;;;;;;3.60;1.23;;;15.90;99.90;;;;;;5053688;28;20660;-73
2021/06/22 01:49:22;;;;;;;2.30;0.90;;;15.90;99.90;;;;;;5053879;28;20203;-73
2021/06/22 01:51:49;;;;;;;2.03;0.47;;;15.90;99.90;;;;;;5053493;28;20273;-74
2021/06/22 01:54:16;;;;;;;7.25;1.25;;;16.00;99.90;;;;;;5053292;28;20211;-75
2021/06/22 01:56:50;;;;;;;1.73;1.20;;;16.00;99.90;;;;;;5053602;28;20215;-81
2021/06/22 01:59:17;;;;;;;2.47;0.85;;;16.00;99.90;;;;;;5053134;28;20211;-75
2021/06/22 02:01:44;;;;;;;2.63;1.10;;;16.00;99.90;;;;;;5053563;28;20210;-81
2021/06/22 02:04:12;;;;;;;1.80;1.00;;;15.90;99.90;;;;;;5053400;28;20210;-75
2021/06/22 02:06:39;;;;;;;2.80;1.50;;;15.90;99.90;;;;;;5053309;28;20650;-75
2021/06/22 02:09:07;;;;;;;1.73;1.08;;;15.90;99.90;;;;;;5053391;28;20215;-74
2021/06/22 02:11:34;;;;;;;1.55;1.08;;;16.10;99.90;;;;;;5053745;28;20624;-79
2021/06/22 02:14:05;;;;;;;2.88;1.10;;;15.90;99.90;;;;;;5053808;28;20206;-80
2021/06/22 02:16:32;;;;;;;2.05;0.73;;;15.80;99.90;;;;;;5053620;28;20206;-74
2021/06/22 02:18:59;;;;;;;1.10;0.70;;;15.90;99.90;;;;;;5052879;28;20555;-79
2021/06/22 02:21:26;;;;;;;5.60;1.17;;;15.90;99.90;;;;;;5053096;28;20261;-75
2021/06/22 02:23:53;;;;;;;1.10;0.80;;;15.80;99.90;;;;;;5053055;28;20207;-75
2021/06/22 02:26:20;;;;;;;1.40;0.90;;;15.80;99.90;;;;;;5052931;28;20211;-80
2021/06/22 02:28:47;;;;;;;6.57;1.10;;;15.70;99.90;;;;;;5052614;28;20682;-78
2021/06/22 02:31:16;;;;;;;6.53;1.33;;;15.80;99.90;;;;;;5053025;28;20210;-80
2021/06/22 02:33:43;;;;;;;2.45;1.20;;;15.90;99.90;;;;;;5052288;28;20206;-75
2021/06/22 02:36:10;;;;;;;3.88;1.75;;;15.60;99.90;;;;;;5053095;28;20261;-77
2021/06/22 02:38:37;;;;;;;3.90;1.17;;;16.50;99.90;;;;;;5052342;28;20268;-77
2021/06/22 02:41:04;;;;;;;4.45;1.58;;;15.70;99.90;;;;;;5053360;28;20241;-76
2021/06/22 02:43:31;;;;;;;4.18;1.52;;;15.70;99.90;;;;;;5052759;28;20207;-75
2021/06/22 02:45:59;;;;;;;7.70;1.02;;;15.70;99.90;;;;;;5052535;28;20288;-75
2021/06/22 02:48:27;;;;;;;2.58;1.50;;;15.80;99.90;;;;;;5052409;28;20218;-75
2021/06/22 02:50:54;;;;;;;4.50;1.50;;;15.90;99.90;;;;;;5052323;28;20689;-75
2021/06/22 02:53:21;;;;;;;2.28;1.17;;;15.90;99.90;;;;;;5052736;28;20256;-81
2021/06/22 02:55:48;;;;;;;5.00;1.30;;;15.90;99.90;;;;;;5052144;28;20211;-81
2021/06/22 02:58:15;;;;;;;3.65;1.30;;;15.90;99.90;;;;;;5052359;28;20206;-75
2021/06/22 03:00:42;;;;;;;3.80;1.35;;;15.90;99.90;;;;;;5051951;28;20717;-77
2021/06/22 03:03:09;;;;;;;10.63;1.60;;;15.90;99.90;;;;;;5038692;28;20260;-81
2021/06/22 03:05:38;;;;;;;4.35;1.83;;;15.90;99.90;;;;;;5052052;28;20273;-75
2021/06/22 03:08:05;;;;;;;3.75;1.98;;;16.00;99.90;;;;;;5052276;28;20260;-75
2021/06/22 03:10:32;;;;;;;1.42;1.27;;;15.90;99.90;;;;;;5052354;28;20264;-75
2021/06/22 03:12:59;;;;;;;10.15;2.08;;;16.00;99.90;;;;;;5051802;28;20211;-79
2021/06/22 03:15:27;;;;;;;6.43;1.70;;;15.90;99.90;;;;;;5052472;28;20219;-78
2021/06/22 03:17:55;;;;;;;7.53;1.55;;;15.90;99.90;;;;;;5051934;28;20625;-78
2021/06/22 03:20:22;;;;;;;3.33;2.10;;;16.00;99.90;;;;;;5052215;28;20258;-73
2021/06/22 03:22:51;;;;;;;3.53;1.52;;;16.20;99.90;;;;;;5051864;28;20211;-73
2021/06/22 03:25:18;;;;;;;6.20;1.52;;;16.00;99.90;;;;;;5038666;28;20293;-79
2021/06/22 03:27:45;;;;;;;5.18;1.50;;;16.00;99.90;;;;;;5051418;28;20264;-77
2021/06/22 03:30:14;;;;;;;3.78;1.75;;;16.00;99.90;;;;;;5051516;28;20678;-76
2021/06/22 03:32:43;;;;;;;8.88;1.63;;;15.90;99.90;;;;;;5051481;28;20211;-72
2021/06/22 03:35:12;;;;;;;1.55;1.20;;;16.00;99.90;;;;;;5051883;28;20231;-73
2021/06/22 03:37:39;;;;;;;2.20;1.92;;;16.10;99.90;;;;;;5051752;28;20207;-76
2021/06/22 03:40:08;;;;;;;5.32;1.45;;;16.10;99.90;;;;;;5051389;28;20210;-74
2021/06/22 03:42:36;;;;;;;6.13;1.70;;;16.00;99.90;;;;;;5051074;28;20731;-74
2021/06/22 03:45:04;;;;;;;4.95;1.98;;;16.00;99.90;;;;;;5052075;28;20207;-80
2021/06/22 03:47:31;;;;;;;2.97;1.08;;;16.10;99.90;;;;;;5051906;28;20747;-76
2021/06/22 03:49:58;;;;;;;4.07;1.35;;;16.10;99.90;;;;;;5051196;28;20256;-75
2021/06/22 03:52:25;;;;;;;3.20;2.03;;;16.00;99.90;;;;;;5051449;28;20620;-75
2021/06/22 03:54:52;;;;;;;4.65;1.60;;;16.00;99.90;;;;;;5050988;28;20219;-80
2021/06/22 03:57:20;;;;;;;5.28;1.52;;;16.00;99.90;;;;;;5051340;28;20276;-77
2021/06/22 03:59:47;;;;;;;6.20;2.08;;;16.00;99.90;;;;;;5051295;28;20210;-78
2021/06/22 04:02:14;;;;;;;3.33;1.80;;;16.00;99.90;;;;;;5051496;28;20242;-78
2021/06/22 04:04:41;;;;;;;3.03;1.45;;;16.00;99.90;;;;;;5050876;28;20207;-79
2021/06/22 04:07:08;;;;;;;3.63;1.42;;;16.00;99.90;;;;;;5051467;28;20207;-74
2021/06/22 04:09:35;;;;;;;1.48;1.38;;;15.90;99.90;;;;;;5050788;28;20276;-76
2021/06/22 04:12:02;;;;;;;2.00;1.50;;;15.90;99.90;;;;;;5051687;28;20256;-75
2021/06/22 04:14:30;;;;;;;3.45;1.60;;;15.90;99.90;;;;;;5051214;28;20210;-76
2021/06/22 04:16:58;;;;;;;6.78;1.90;;;15.80;99.90;;;;;;5050779;28;20248;-77
2021/06/22 04:19:24;;;;;;;4.57;1.50;;;15.80;99.90;;;;;;5051454;28;20696;-79
2021/06/22 04:21:51;;;;;;;3.38;1.80;;;15.80;99.90;;;;;;5050856;28;20300;-81
2021/06/22 04:24:18;;;;;;;1.33;1.13;;;15.80;99.90;;;;;;5050702;28;20256;-80
2021/06/22 04:26:45;;;;;;;2.15;1.30;;;16.00;99.90;;;;;;5050641;28;20264;-80
2021/06/22 04:29:12;;;;;;;4.07;2.17;;;16.00;99.90;;;;;;5051159;28;20256;-82
2021/06/22 04:31:41;;;;;;;3.13;1.38;;;15.90;99.90;;;;;;5050364;28;20206;-81
2021/06/22 04:34:08;;;;;;;4.55;1.67;;;16.10;99.90;;;;;;5050781;28;20207;-74
2021/06/22 04:36:35;;;;;;;5.28;1.17;;;16.30;99.90;;;;;;5050699;28;20265;-73
2021/06/22 04:39:02;;;;;;;2.63;1.17;;;17.40;99.90;;;;;;5050982;28;20199;-81
2021/06/22 04:41:29;;;;;;;6.63;1.73;;;17.10;99.90;;;;;;5050623;28;20234;-73
2021/06/22 04:43:56;;;;;;;6.43;1.92;;;16.30;99.90;;;;;;5050424;28;20285;-75
2021/06/22 04:46:23;;;;;;;3.63;1.33;;;16.30;99.90;;;;;;5050771;28;20211;-80
2021/06/22 04:48:52;;;;;;;2.42;1.70;;;16.10;99.90;;;;;;5049854;28;20735;-75
2021/06/22 04:51:19;;;;;;;3.00;1.90;;;16.00;99.90;;;;;;5050314;28;20607;-76
2021/06/22 04:53:46;;;;;;;7.68;2.00;;;16.00;99.90;;;;;;5049281;28;20207;-75
2021/06/22 04:56:14;;;;;;;5.68;2.15;;;16.00;99.90;;;;;;5050032;28;20203;-76
2021/06/22 04:58:41;;;;;;;3.67;1.90;;;15.90;99.90;;;;;;5050220;28;20219;-77
2021/06/22 05:01:08;;;;;;;5.03;1.60;;;15.90;99.90;;;;;;5048068;28;20234;-77
2021/06/22 05:03:36;;;;;;;4.90;1.63;;;15.90;99.90;;;;;;5047031;28;20624;-76
2021/06/22 05:06:05;;;;;;;6.90;2.47;;;15.80;99.90;;;;;;5042488;28;20682;-76
2021/06/22 05:08:32;;;;;;;7.72;3.15;;;15.80;99.90;;;;;;5042439;28;20211;-78
2021/06/22 05:10:59;;;;;;;4.13;2.30;;;15.80;99.90;;;;;;5044411;28;20211;-75
2021/06/22 05:13:26;;;;;;;6.90;2.50;;;15.80;99.90;;;;;;5049367;28;20264;-78
2021/06/22 05:15:53;;;;;;;12.23;3.15;;;15.70;99.90;;;;;;5049791;28;20264;-79
2021/06/22 05:18:20;;;;;;;5.38;1.88;;;15.60;99.90;;;;;;5049646;28;20207;-78
2021/06/22 05:20:47;;;;;;;2.35;1.77;;;15.60;99.90;;;;;;5049551;28;20296;-75
2021/06/22 05:23:17;;;;;;;4.95;1.75;;;15.50;99.90;;;;;;5045747;28;20206;-77
2021/06/22 05:25:44;;;;;;;11.23;2.75;;;15.60;99.90;;;;;;5048700;28;20249;-77
2021/06/22 05:28:11;;;;;;;3.88;1.70;;;15.70;99.90;;;;;;5050001;28;20207;-76
2021/06/22 05:30:38;;;;;;;3.72;2.22;;;15.70;99.90;;;;;;5048807;28;20215;-76
2021/06/22 05:33:05;;;;;;;6.15;2.15;;;15.70;99.90;;;;;;5047179;28;20715;-76
2021/06/22 05:35:33;;;;;;;7.03;2.17;;;15.70;99.90;;;;;;5050002;28;20685;-76
2021/06/22 05:38:00;;;;;;;7.75;2.05;;;15.80;99.90;;;;;;5048670;28;20290;-75
2021/06/22 05:40:29;;;;;;;4.68;1.70;;;15.90;99.90;;;;;;5047157;28;20265;-76
2021/06/22 05:42:56;;;;;;;6.65;2.45;;;16.10;99.90;;;;;;5047606;28;20215;-75
2021/06/22 05:45:23;;;;;;;6.15;1.70;;;16.40;99.90;;;;;;5050025;28;20202;-76
2021/06/22 05:47:50;;;;;;;5.50;2.28;;;16.70;99.90;;;;;;5054448;28;20203;-76
2021/06/22 05:50:17;;;;;;;4.50;2.38;;;16.80;99.90;;;;;;5051491;28;20621;-76
2021/06/22 05:52:45;;;;;;;5.10;1.92;;;16.80;99.90;;;;;;5049604;28;20210;-77
2021/06/22 05:55:21;;;;;;;3.20;1.90;;;16.80;99.90;;;;;;5049582;28;20591;-76
2021/06/22 05:57:51;;;;;;;8.60;2.17;;;16.80;99.90;;;;;;5049170;28;20719;-74
2021/06/22 06:00:21;;;;;;;2.70;1.73;;;16.80;99.90;;;;;;5057175;28;20202;-76
2021/06/22 06:02:50;;;;;;;3.05;1.92;;;16.90;99.90;;;;;;5052237;28;20288;-76
2021/06/22 06:05:17;;;;;;;6.50;2.40;;;17.00;99.90;;;;;;5050115;28;20284;-76
2021/06/22 06:07:45;;;;;;;4.07;1.73;;;16.90;99.90;;;;;;5053170;28;20261;-76
2021/06/22 06:10:13;;;;;;;6.05;2.13;;;16.90;99.90;;;;;;5053219;28;20696;-75
2021/06/22 06:12:40;;;;;;;6.50;2.25;;;16.90;99.90;;;;;;5052823;28;20292;-75
2021/06/22 06:15:10;;;;;;;3.45;2.10;;;16.80;99.90;;;;;;5053448;28;20211;-76
2021/06/22 06:17:38;;;;;;;6.47;1.70;;;16.80;99.90;;;;;;5053082;28;20207;-75
2021/06/22 06:20:07;;;;;;;2.08;1.30;;;16.90;99.90;;;;;;5052756;28;20728;-75
2021/06/22 06:22:34;;;;;;;4.10;1.63;;;17.10;99.90;;;;;;5053561;28;20230;-75
2021/06/22 06:25:03;;;;;;;4.15;1.58;;;17.20;99.90;;;;;;5053024;28;20658;-75
2021/06/22 06:27:40;;;;;;;5.40;2.60;;;17.40;99.90;;;;;;5053311;28;20663;-75
2021/06/22 06:30:11;;;;;;;2.85;1.73;;;17.40;99.90;;;;;;5053091;28;20195;-75
2021/06/22 06:32:38;;;;;;;2.28;1.70;;;17.30;99.90;;;;;;5052872;28;20237;-76
2021/06/22 06:35:07;;;;;;;3.80;2.70;;;17.40;99.90;;;;;;5052355;28;20237;-75
2021/06/22 06:37:34;;;;;;;2.30;1.85;;;17.40;99.90;;;;;;5053214;28;20211;-75
2021/06/22 06:40:01;;;;;;;2.70;1.80;;;17.50;99.90;;;;;;5053160;28;20215;-75
2021/06/22 06:42:28;;;;;;;5.97;2.60;;;17.50;99.90;;;;;;5052078;28;20633;-75
2021/06/22 06:44:55;;;;;;;5.35;1.45;;;17.60;99.90;;;;;;5052411;28;20609;-75
2021/06/22 06:47:23;;;;;;;3.22;1.60;;;17.60;99.90;;;;;;5050479;28;20207;-75
2021/06/22 06:49:50;;;;;;;4.40;1.60;;;17.70;99.90;;;;;;5051833;28;20210;-75
2021/06/22 06:52:17;;;;;;;5.05;1.63;;;17.80;99.90;;;;;;5051991;28;20203;-75
2021/06/22 06:54:44;;;;;;;6.93;1.90;;;17.90;99.90;;;;;;5052634;28;20264;-79
2021/06/22 06:57:11;;;;;;;2.95;2.30;;;18.40;99.90;;;;;;5052753;28;20240;-72
2021/06/22 06:59:38;;;;;;;5.18;1.73;;;18.60;99.90;;;;;;5047641;28;20863;-76
2021/06/22 07:02:05;;;;;;;4.28;1.90;;;18.00;99.90;;;;;;5046222;28;20227;-74
2021/06/22 07:04:34;;;;;;;7.93;1.55;;;18.00;99.90;;;;;;5045333;28;20199;-73
2021/06/22 07:07:01;;;;;;;8.73;1.77;;;18.10;99.90;;;;;;5052690;28;20256;-73
2021/06/22 07:09:28;;;;;;;4.20;1.63;;;18.30;99.90;;;;;;5051871;28;20740;-72
2021/06/22 07:11:56;;;;;;;3.42;1.50;;;18.40;99.90;;;;;;5049506;28;21032;-72
2021/06/22 07:14:24;;;;;;;2.55;1.67;;;18.40;99.90;;;;;;5050066;28;20261;-72
2021/06/22 07:16:51;;;;;;;3.28;1.50;;;18.40;99.90;;;;;;5051205;28;20260;-71
2021/06/22 07:19:18;;;;;;;2.13;1.30;;;18.40;99.90;;;;;;5050682;28;20253;-73
2021/06/22 07:21:47;;;;;;;1.98;1.25;;;18.70;99.90;;;;;;5047726;28;20316;-73
2021/06/22 07:24:14;;;;;;;1.60;1.25;;;18.90;99.90;;;;;;5048117;28;20266;-72
2021/06/22 07:26:41;;;;;;;4.15;1.42;;;19.00;99.90;;;;;;5051426;28;20674;-72
2021/06/22 07:29:08;;;;;;;4.38;1.48;;;19.30;99.90;;;;;;5052070;28;20214;-72
2021/06/22 07:31:35;;;;;;;2.83;1.50;;;19.80;99.90;;;;;;5048433;28;20626;-73
2021/06/22 07:34:02;;;;;;;1.75;1.20;;;20.10;99.90;;;;;;5051571;28;20202;-81
2021/06/22 07:36:29;;;;;;;1.52;0.93;;;20.20;99.90;;;;;;5050873;28;20203;-78
2021/06/22 07:38:58;;;;;;;3.80;1.67;;;19.90;99.90;;;;;;5051623;28;20635;-79
2021/06/22 07:41:25;;;;;;;1.35;1.02;;;20.30;99.90;;;;;;5051611;28;20735;-79
2021/06/22 07:43:52;;;;;;;2.22;0.80;;;19.60;99.90;;;;;;5051173;28;20277;-74
2021/06/22 07:46:19;;;;;;;1.88;1.35;;;20.00;99.90;;;;;;5050813;28;20257;-77
2021/06/22 07:48:46;;;;;;;1.77;1.33;;;19.60;99.90;;;;;;5038439;28;20253;-76
2021/06/22 07:51:13;;;;;;;4.47;1.05;;;20.70;99.90;;;;;;5042593;28;20248;-80
2021/06/22 07:53:40;;;;;;;3.72;1.65;;;22.60;99.90;;;;;;5050688;28;20264;-75
2021/06/22 07:56:09;;;;;;;2.08;1.60;;;22.70;99.90;;;;;;5049804;28;20626;-78
2021/06/22 07:58:36;;;;;;;3.40;0.80;;;21.10;99.90;;;;;;5050395;28;20256;-77
2021/06/22 08:01:03;;;;;;;1.48;1.05;;;20.40;99.90;;;;;;5050909;28;20674;-78
2021/06/22 08:03:30;;;;;;;2.95;1.13;;;20.90;99.90;;;;;;5047756;28;20629;-78
2021/06/22 08:05:57;;;;;;;1.27;1.10;;;21.00;99.90;;;;;;5050885;28;20325;-77
2021/06/22 08:08:25;;;;;;;1.63;0.95;;;21.80;99.90;;;;;;5051068;28;20664;-76
2021/06/22 08:10:54;;;;;;;4.95;1.05;;;22.40;99.90;;;;;;5045152;28;20203;-77
2021/06/22 08:13:24;;;;;;;2.55;0.80;;;22.00;99.90;;;;;;5050942;28;20214;-76
2021/06/22 08:15:52;;;;;;;1.63;1.30;;;21.10;99.90;;;;;;5050570;28;20724;-76
2021/06/22 08:18:19;;;;;;;7.05;6.53;;;20.70;99.90;;;;;;5050008;28;20245;-80
2021/06/22 08:20:47;;;;;;;1.10;0.90;;;20.20;99.90;;;;;;5050446;28;20728;-79
2021/06/22 08:23:14;;;;;;;3.08;0.95;;;20.00;99.90;;;;;;5050799;28;20231;-80
2021/06/22 08:25:42;;;;;;;3.00;1.25;;;19.90;99.90;;;;;;5050658;28;20240;-78
2021/06/22 08:28:09;;;;;;;1.52;0.73;;;20.10;99.90;;;;;;5048281;28;20203;-75
2021/06/22 08:30:38;;;;;;;1.58;0.77;;;20.20;99.90;;;;;;5048907;28;20625;-76
2021/06/22 08:33:06;;;;;;;0.85;0.68;;;20.20;99.90;;;;;;5042843;28;20617;-76
2021/06/22 08:35:36;;;;;;;1.40;1.30;;;20.20;99.90;;;;;;5040134;28;20213;-75
2021/06/22 08:38:03;;;;;;;11.95;11.32;;;20.50;99.90;;;;;;5050915;28;20290;-75
2021/06/22 08:40:31;;;;;;;1.05;0.98;;;20.50;99.90;;;;;;5049754;28;20268;-72
2021/06/22 08:42:58;;;;;;;2.28;1.35;;;20.80;99.90;;;;;;5047104;28;20241;-73
2021/06/22 08:45:26;;;;;;;1.88;1.20;;;21.00;99.90;;;;;;5049810;28;20215;-74
2021/06/22 08:47:55;;;;;;;2.67;1.30;;;21.10;99.90;;;;;;5049854;28;20629;-76
2021/06/22 08:50:22;;;;;;;1.83;1.02;;;21.30;99.90;;;;;;5050216;28;20915;-71
2021/06/22 08:52:49;;;;;;;3.33;0.88;;;21.40;99.90;;;;;;5048984;28;20728;-75
2021/06/22 08:55:29;;;;;;;0.88;0.70;;;21.50;99.90;;;;;;5050404;28;20207;-78
2021/06/22 08:57:58;;;;;;;1.00;0.90;;;21.60;99.90;;;;;;5048619;28;20297;-79
2021/06/22 09:00:25;;;;;;;1.80;1.10;;;21.20;99.90;;;;;;5050107;28;20215;-77
2021/06/22 09:03:05;;;;;;;2.95;1.00;;;20.40;99.90;;;;;;5049360;28;20721;-77
2021/06/22 09:05:32;;;;;;;1.25;0.73;;;19.70;99.90;;;;;;5046516;28;20202;-78
2021/06/22 09:08:00;;;;;;;2.85;1.17;;;19.30;99.90;;;;;;5050131;28;20268;-79
2021/06/22 09:10:30;;;;;;;1.52;0.73;;;19.10;99.90;;;;;;5050257;28;20214;-81
2021/06/22 09:12:58;;;;;;;4.80;1.17;;;19.20;99.90;;;;;;5049543;28;20199;-79
2021/06/22 09:15:27;;;;;;;5.05;1.75;;;19.40;99.90;;;;;;5049878;28;21113;-78
2021/06/22 09:17:55;;;;;;;2.95;1.45;;;19.90;99.90;;;;;;5049494;28;20674;-81
2021/06/22 09:20:38;;;;;;;1.70;0.60;;;20.50;99.90;;;;;;5050459;28;20211;-79
2021/06/22 09:23:14;;;;;;;3.78;1.15;;;22.00;99.90;;;;;;5049174;28;20226;-80
2021/06/22 09:25:41;;;;;;;2.53;1.92;;;23.10;99.90;;;;;;5049296;28;20665;-80
2021/06/22 09:28:09;;;;;;;0.85;0.60;;;23.80;99.90;;;;;;5048548;28;20225;-75
2021/06/22 09:30:49;;;;;;;1.17;0.70;;;23.40;99.90;;;;;;5036892;28;20207;-74
2021/06/22 09:33:31;;;;;;;1.63;1.30;;;22.60;99.90;;;;;;5049372;28;20628;-74
2021/06/22 09:36:02;;;;;;;0.70;0.52;;;21.60;99.90;;;;;;5049781;28;20211;-74
2021/06/22 09:38:31;;;;;;;4.78;1.08;;;21.20;99.90;;;;;;5049748;28;20210;-74
2021/06/22 09:41:25;;;;;;;1.75;0.90;;;20.80;99.90;;;;;;5050842;28;20727;-75
2021/06/22 09:43:58;;;;;;;1.60;1.27;;;20.60;99.90;;;;;;5050514;28;20314;-73
2021/06/22 09:46:37;;;;;;;3.33;1.00;;;20.50;99.90;;;;;;5050451;28;20207;-75
2021/06/22 09:49:05;;;;;;;2.08;0.90;;;20.50;99.90;;;;;;5048133;28;20731;-74
2021/06/22 09:51:37;;;;;;;4.32;1.55;;;20.70;99.90;;;;;;5049891;28;20214;-75
2021/06/22 09:54:13;;;;;;;2.40;1.30;;;21.70;99.90;;;;;;5052686;28;20199;-74
2021/06/22 09:56:55;;;;;;;1.38;1.20;;;21.80;99.90;;;;;;5053012;28;20206;-74
2021/06/22 09:59:22;;;;;;;1.30;1.02;;;21.70;99.90;;;;;;5050090;28;20260;-73
2021/06/22 10:01:52;;;;;;;1.67;1.40;;;21.50;99.90;;;;;;5052791;28;20206;-74
2021/06/22 10:04:22;;;;;;;4.65;1.88;;;21.40;99.90;;;;;;5053405;28;20670;-75
2021/06/22 10:06:53;;;;;;;6.35;1.10;;;21.00;99.90;;;;;;5052816;28;20203;-75
2021/06/22 10:09:22;;;;;;;4.78;1.52;;;20.50;99.90;;;;;;5051002;28;20226;-77
2021/06/22 10:11:56;;;;;;;0.88;0.80;;;20.40;99.90;;;;;;5041747;28;20666;-76
2021/06/22 10:14:25;;;;;;;0.98;0.70;;;20.60;99.90;;;;;;5053297;28;20222;-76
2021/06/22 10:16:53;;;;;;;2.30;1.55;;;21.00;99.90;;;;;;5052824;28;20333;-76
2021/06/22 10:19:23;;;;;;;2.70;0.70;;;21.70;99.90;;;;;;5050543;28;20305;-76
2021/06/22 10:21:53;;;;;;;1.48;0.80;;;21.80;99.90;;;;;;5046996;28;20203;-78
2021/06/22 10:24:20;;;;;;;4.55;1.15;;;21.50;99.90;;;;;;5050139;28;20235;-77
2021/06/22 10:26:48;;;;;;;3.28;1.30;;;21.20;99.90;;;;;;5052107;28;20249;-76
2021/06/22 10:29:19;;;;;;;9.50;3.42;;;20.80;99.90;;;;;;5046918;28;20199;-76
2021/06/22 10:31:47;;;;;;;37.03;31.02;;;20.60;99.90;;;;;;5052407;28;20663;-76
2021/06/22 10:34:14;;;;;;;3.53;2.25;;;20.50;99.90;;;;;;5051762;28;20739;-76
2021/06/22 10:36:49;;;;;;;2.47;1.50;;;20.50;99.90;;;;;;5052102;28;20215;-76
2021/06/22 10:39:23;;;;;;;2.50;1.13;;;20.60;99.90;;;;;;5051976;28;20205;-77
2021/06/22 10:41:51;;;;;;;2.20;1.42;;;21.20;99.90;;;;;;5051965;28;20810;-76
2021/06/22 10:44:40;;;;;;;0.98;0.85;;;21.60;99.90;;;;;;5050408;28;20293;-76
2021/06/22 10:47:31;;;;;;;2.35;1.15;;;21.80;99.90;;;;;;5050980;28;20207;-76
2021/06/22 10:50:17;;;;;;;3.85;1.45;;;21.90;99.90;;;;;;5052167;28;20255;-76
2021/06/22 10:53:02;;;;;;;6.65;3.30;;;22.00;99.90;;;;;;5039100;28;20206;-75
2021/06/22 10:55:57;;;;;;;5.13;1.45;;;22.40;99.90;;;;;;5051665;28;20259;-76
2021/06/22 10:58:24;;;;;;;4.40;1.52;;;22.80;99.90;;;;;;5047620;28;20202;-76
2021/06/22 11:01:18;;;;;;;1.48;0.88;;;23.00;99.90;;;;;;5052116;28;20206;-77
2021/06/22 11:03:45;;;;;;;2.33;1.00;;;23.40;99.90;;;;;;5044715;28;20236;-80
2021/06/22 11:06:24;;;;;;;2.05;1.50;;;24.00;99.90;;;;;;5040691;28;20260;-79
2021/06/22 11:08:52;;;;;;;1.95;1.48;;;23.80;99.90;;;;;;5051677;28;20265;-79
2021/06/22 11:11:23;;;;;;;1.15;0.85;;;23.50;99.90;;;;;;5052076;28;20202;-79
2021/06/22 11:13:55;;;;;;;2.33;1.38;;;23.30;99.90;;;;;;5052068;28;20206;-78
2021/06/22 11:16:27;;;;;;;1.70;1.25;;;23.40;99.90;;;;;;5052080;28;20280;-81
2021/06/22 11:19:15;;;;;;;3.45;1.00;;;23.30;99.90;;;;;;5051899;28;20841;-81
2021/06/22 11:21:52;;;;;;;3.53;1.75;;;23.90;99.90;;;;;;5046342;28;20236;-80
2021/06/22 11:24:20;;;;;;;1.70;1.40;;;23.80;99.90;;;;;;5051539;28;20227;-79
2021/06/22 11:27:06;;;;;;;2.35;1.00;;;23.90;99.90;;;;;;5051409;28;20272;-88
2021/06/22 11:29:51;;;;;;;3.95;1.85;;;23.90;99.90;;;;;;5052323;28;20268;-81
2021/06/22 11:32:36;;;;;;;2.58;0.98;;;23.60;99.90;;;;;;5043194;28;20293;-81
2021/06/22 11:35:05;;;;;;;3.45;1.20;;;23.40;99.90;;;;;;5051815;28;20195;-82
2021/06/22 11:37:32;;;;;;;2.45;1.02;;;23.10;99.90;;;;;;5050994;28;20202;-81
2021/06/22 11:40:07;;;;;;;3.13;0.95;;;23.30;99.90;;;;;;5042214;28;20215;-75
2021/06/22 11:42:37;;;;;;;1.90;1.20;;;23.30;99.90;;;;;;5051223;28;20214;-76
2021/06/22 11:45:25;;;;;;;0.80;0.80;;;24.00;99.90;;;;;;5048855;28;20662;-76
2021/06/22 11:48:01;;;;;;;3.42;0.60;;;24.60;99.90;;;;;;5041225;28;20808;-76
2021/06/22 11:50:47;;;;;;;1.38;0.70;;;24.70;99.90;;;;;;5051240;28;20202;-78
2021/06/22 11:53:15;;;;;;;1.92;0.73;;;24.40;99.90;;;;;;5050902;28;20745;-76
2021/06/22 11:55:51;;;;;;;1.13;0.90;;;24.20;99.90;;;;;;5047899;28;20682;-78
2021/06/22 11:58:25;;;;;;;2.17;0.82;;;24.00;99.90;;;;;;5045878;28;20215;-77
2021/06/22 12:00:54;;;;;;;2.20;1.10;;;24.70;99.90;;;;;;5046385;28;20210;-77
2021/06/22 12:03:30;;;;;;;1.35;1.00;;;24.90;99.90;;;;;;5048215;28;20636;-79
2021/06/22 12:06:09;;;;;;;3.90;0.77;;;24.50;99.90;;;;;;5045757;28;20203;-78
2021/06/22 12:08:40;;;;;;;3.40;1.23;;;24.30;99.90;;;;;;5049545;28;20617;-80
2021/06/22 12:11:08;;;;;;;2.35;1.13;;;23.70;99.90;;;;;;5049362;28;20248;-85
2021/06/22 12:13:42;;;;;;;2.35;1.10;;;23.00;99.90;;;;;;5035935;28;20272;-76
2021/06/22 12:16:24;;;;;;;1.58;0.98;;;23.00;99.90;;;;;;5050981;28;20202;-79
2021/06/22 12:18:53;;;;;;;1.15;1.05;;;23.50;99.90;;;;;;5046807;28;20293;-80
2021/06/22 12:21:20;;;;;;;0.88;0.70;;;24.10;99.90;;;;;;5045501;28;20212;-79
2021/06/22 12:23:47;;;;;;;2.05;0.60;;;24.50;99.90;;;;;;5040895;28;20756;-79
2021/06/22 12:26:16;;;;;;;1.65;1.20;;;24.30;99.90;;;;;;5045181;28;20261;-78
2021/06/22 12:28:45;;;;;;;1.75;0.70;;;24.40;99.90;;;;;;5044945;28;20213;-78
2021/06/22 12:31:15;;;;;;;1.85;0.90;;;24.70;99.90;;;;;;5050237;28;20203;-79
2021/06/22 12:33:44;;;;;;;4.57;1.05;;;24.00;99.90;;;;;;5050350;28;20228;-77
2021/06/22 12:36:14;;;;;;;2.95;0.80;;;23.40;99.90;;;;;;5042977;28;20203;-81
2021/06/22 12:38:41;;;;;;;6.57;6.18;;;23.70;99.90;;;;;;5049711;28;20696;-79
2021/06/22 12:41:10;;;;;;;2.38;1.00;;;24.20;99.90;;;;;;5050666;28;20237;-78
2021/06/22 12:43:47;;;;;;;0.68;0.68;;;23.50;99.90;;;;;;5049980;28;20231;-76
2021/06/22 12:46:15;;;;;;;1.88;0.68;;;23.50;99.90;;;;;;5050371;28;20225;-77
2021/06/22 12:48:43;;;;;;;1.30;0.88;;;24.70;99.90;;;;;;5049759;28;20658;-78
2021/06/22 12:51:13;;;;;;;7.30;5.80;;;24.80;99.90;;;;;;5050328;28;20207;-74
2021/06/22 12:53:40;;;;;;;0.60;0.55;;;24.80;99.90;;;;;;5050237;28;20238;-79
2021/06/22 12:56:09;;;;;;;5.22;1.10;;;24.20;99.90;;;;;;5050139;28;20253;-78